KGXF

Gila Bend Af Aux Airport

Gila Bend, Arizona, USA
METAR KGXF 182258Z AUTO 24009KT 10SM CLR 41/15 A2984 RMK AO2 LTG DSNT N SLP090
Observed Flight Rules
Aug-18 @ 22:58 UTC (46 minutes ago) Visual Flight Rules
Wind Visibility Clouds
240° at 9 knots 10 miles
  • Clear skies
Temperatures Readings
Current 41°C / 106°F
Dewpoint 15°C / 59°F
Humidity 22%
Altimeter 29.84" Hg
Pressure 1009 hPa
Elevation 262
METAR KGXF 182258Z AUTO 24009KT 10SM CLR 41/15 A2984 RMK AO2 LTG DSNT N SLP090
Observed Flight Rules
Aug-18 @ 22:58 UTC
(46 minutes ago)
VFR
Wind Visibility
240° at 9 knots 10 miles
Clouds
  • Clear skies
Temperature Dewpoint
41°C / 106°F 15°C / 59°F
Humidity Altimeter Pressure
22% 29.84" Hg 1009 hPa